Time;durP1;ratioP1;P1;durP2;ratioP2;P2;SDS_P1;SDS_P2;PMS_P1;PMS_P2;Temp;Humidity;BMP_temperature;BMP_pressure;BME280_temperature;BME280_humidity;BME280_pressure;Samples;Min_cycle;Max_cycle;Signal;HPM_P1;HPM_P2
2022/05/07 00:00:38;;;;;;;16.40;12.88;;;15.20;82.80;;;;;;5037075;28;20048;-79
2022/05/07 00:03:04;;;;;;;16.45;12.20;;;15.20;82.90;;;;;;5055001;28;20040;-80
2022/05/07 00:05:31;;;;;;;16.35;12.73;;;15.20;83.10;;;;;;5036856;28;20056;-79
2022/05/07 00:07:57;;;;;;;17.90;13.02;;;15.20;83.50;;;;;;5054680;28;20036;-79
2022/05/07 00:10:23;;;;;;;15.70;12.88;;;15.20;83.80;;;;;;5036899;28;20029;-80
2022/05/07 00:12:48;;;;;;;17.23;12.82;;;15.20;84.20;;;;;;5054503;28;20040;-79
2022/05/07 00:15:14;;;;;;;16.48;13.50;;;15.20;84.50;;;;;;5036446;28;20456;-79
2022/05/07 00:20:23;;;;;;;16.20;13.75;;;15.30;85.30;;;;;;5039520;28;20114;-79
2022/05/07 00:22:49;;;;;;;18.08;14.43;;;15.20;85.50;;;;;;5054171;28;20481;-80
2022/05/07 00:25:14;;;;;;;16.27;13.38;;;15.30;85.80;;;;;;5036143;28;20029;-80
2022/05/07 00:27:40;;;;;;;16.80;13.77;;;15.30;86.10;;;;;;5054284;28;20044;-80
2022/05/07 00:30:08;;;;;;;17.90;14.07;;;15.30;86.00;;;;;;5036681;28;20025;-80
2022/05/07 00:32:34;;;;;;;16.98;14.40;;;15.30;85.70;;;;;;5054189;28;20047;-80
2022/05/07 00:35:00;;;;;;;16.45;13.40;;;15.30;85.50;;;;;;5036235;28;20021;-80
2022/05/07 00:37:26;;;;;;;17.13;13.60;;;15.20;85.90;;;;;;5036653;28;20135;-80
2022/05/07 00:39:52;;;;;;;17.42;14.02;;;15.20;85.20;;;;;;5036266;28;20115;-80
2022/05/07 00:42:19;;;;;;;17.40;12.45;;;15.30;85.30;;;;;;5053881;28;20029;-80
2022/05/07 00:44:46;;;;;;;15.93;12.38;;;15.30;85.30;;;;;;5053940;28;20029;-80
2022/05/07 00:47:15;;;;;;;15.73;12.43;;;15.20;85.30;;;;;;5036104;28;20457;-80
2022/05/07 00:49:45;;;;;;;15.27;12.40;;;15.20;85.40;;;;;;5053786;28;20373;-80
2022/05/07 00:52:10;;;;;;;14.77;11.75;;;15.20;85.40;;;;;;5036418;28;20116;-79
2022/05/07 00:54:37;;;;;;;17.23;11.77;;;15.10;85.40;;;;;;5035850;28;20060;-79
2022/05/07 00:57:03;;;;;;;16.45;13.57;;;15.10;85.60;;;;;;5054076;28;20381;-80
2022/05/07 00:59:29;;;;;;;16.05;12.48;;;15.10;85.90;;;;;;5035702;28;20128;-80
2022/05/07 01:01:55;;;;;;;17.92;13.80;;;15.00;86.00;;;;;;5036055;28;20029;-73
2022/05/07 01:04:22;;;;;;;16.17;12.57;;;15.10;86.20;;;;;;5055267;28;20102;-73
2022/05/07 01:06:47;;;;;;;17.88;13.23;;;15.00;86.20;;;;;;5052370;28;20049;-73
2022/05/07 01:09:13;;;;;;;17.00;13.20;;;15.00;86.30;;;;;;5053256;28;20436;-73
2022/05/07 01:11:41;;;;;;;18.00;13.13;;;15.00;86.40;;;;;;5052448;28;20116;-73
2022/05/07 01:14:06;;;;;;;17.38;12.85;;;15.00;86.40;;;;;;5052260;28;20095;-73
2022/05/07 01:16:32;;;;;;;16.92;14.07;;;15.00;87.00;;;;;;5035834;28;20025;-74
2022/05/07 01:18:58;;;;;;;16.48;12.50;;;14.90;86.60;;;;;;5053227;28;20500;-73
2022/05/07 01:21:23;;;;;;;16.70;12.07;;;14.90;86.90;;;;;;5052293;28;20075;-74
2022/05/07 01:23:49;;;;;;;15.05;12.43;;;14.90;87.20;;;;;;5053115;28;20389;-73
2022/05/07 01:26:20;;;;;;;15.70;12.82;;;14.80;87.10;;;;;;5053273;28;20025;-73
2022/05/07 01:28:46;;;;;;;17.90;13.55;;;14.80;87.10;;;;;;5035671;28;20119;-73
2022/05/07 01:31:11;;;;;;;15.77;11.75;;;14.80;87.20;;;;;;5053175;28;20075;-73
2022/05/07 01:33:38;;;;;;;14.45;12.30;;;14.80;87.40;;;;;;5052040;28;20025;-73
2022/05/07 01:36:11;;;;;;;16.92;12.40;;;14.80;87.70;;;;;;5053225;28;20029;-74
2022/05/07 01:38:37;;;;;;;16.83;13.35;;;14.80;88.00;;;;;;5051442;28;20477;-73
2022/05/07 01:41:03;;;;;;;18.02;14.15;;;14.70;88.20;;;;;;5035333;28;20029;-73
2022/05/07 01:43:35;;;;;;;16.83;13.40;;;14.80;88.50;;;;;;5053009;28;20033;-73
2022/05/07 01:46:01;;;;;;;17.60;14.68;;;14.70;88.80;;;;;;5057730;28;20465;-73
2022/05/07 01:48:27;;;;;;;16.33;13.95;;;14.70;89.20;;;;;;5044610;28;20022;-73
2022/05/07 01:50:53;;;;;;;18.60;14.32;;;14.70;89.50;;;;;;5057783;28;20100;-73
2022/05/07 01:53:18;;;;;;;16.50;13.48;;;14.70;89.80;;;;;;5053936;28;20048;-73
2022/05/07 01:55:44;;;;;;;18.15;12.90;;;14.70;90.00;;;;;;5073003;28;20025;-73
2022/05/07 01:58:11;;;;;;;17.13;13.30;;;14.60;90.10;;;;;;5073243;28;20036;-73
2022/05/07 02:00:40;;;;;;;14.93;12.73;;;14.60;90.10;;;;;;5055391;28;20427;-73
2022/05/07 02:03:06;;;;;;;15.95;12.88;;;14.60;90.20;;;;;;5054975;28;20031;-73
2022/05/07 02:05:32;;;;;;;16.73;13.25;;;14.60;90.20;;;;;;5072510;28;20033;-73
2022/05/07 02:07:58;;;;;;;14.70;12.32;;;14.60;90.30;;;;;;5072893;28;20052;-73
2022/05/07 02:10:24;;;;;;;14.63;12.20;;;14.50;90.30;;;;;;5055152;28;20058;-73
2022/05/07 02:12:50;;;;;;;15.23;12.40;;;14.60;90.50;;;;;;5054926;28;20105;-73
2022/05/07 02:15:16;;;;;;;17.92;12.80;;;14.50;90.60;;;;;;5072915;28;20538;-73
2022/05/07 02:17:42;;;;;;;16.08;13.32;;;14.50;90.60;;;;;;5054940;28;20033;-73
2022/05/07 02:20:08;;;;;;;15.77;12.77;;;14.50;90.70;;;;;;5055036;28;20048;-73
2022/05/07 02:22:34;;;;;;;15.88;12.80;;;14.50;90.70;;;;;;5055030;28;20488;-73
2022/05/07 02:25:00;;;;;;;16.55;13.63;;;14.50;90.80;;;;;;5054933;28;20031;-73
2022/05/07 02:27:26;;;;;;;19.48;14.50;;;14.50;90.90;;;;;;5073194;28;20035;-73
2022/05/07 02:29:51;;;;;;;17.13;13.85;;;14.50;91.10;;;;;;5055004;28;20061;-73
2022/05/07 02:32:17;;;;;;;19.45;14.90;;;14.50;91.30;;;;;;5038227;28;20111;-73
2022/05/07 02:34:43;;;;;;;16.48;13.88;;;14.50;91.40;;;;;;5055018;28;20145;-73
2022/05/07 02:37:10;;;;;;;15.80;13.48;;;14.40;91.60;;;;;;5072736;28;20079;-73
2022/05/07 02:39:36;;;;;;;17.83;14.55;;;14.50;91.60;;;;;;5054874;28;20043;-73
2022/05/07 02:44:47;;;;;;;16.92;13.18;;;14.50;91.70;;;;;;5072910;28;20094;-73
2022/05/07 02:47:12;;;;;;;19.35;14.40;;;14.50;91.70;;;;;;5073075;28;20028;-73
2022/05/07 02:49:38;;;;;;;17.70;13.63;;;14.40;91.70;;;;;;5075572;28;20495;-73
2022/05/07 02:52:04;;;;;;;18.20;14.07;;;14.40;91.70;;;;;;5076186;28;20028;-74
2022/05/07 02:54:29;;;;;;;21.02;14.57;;;14.40;91.70;;;;;;5076338;28;20021;-73
2022/05/07 02:56:56;;;;;;;17.65;13.93;;;14.50;91.80;;;;;;5076127;28;20021;-73
2022/05/07 02:59:22;;;;;;;18.45;14.85;;;14.40;91.80;;;;;;5076615;28;20029;-73
2022/05/07 03:01:48;;;;;;;17.60;14.60;;;14.50;91.90;;;;;;5076291;28;20025;-73
2022/05/07 03:04:13;;;;;;;18.63;15.23;;;14.40;91.90;;;;;;5058033;28;20342;-74
2022/05/07 03:06:39;;;;;;;17.77;14.93;;;14.40;91.80;;;;;;5058208;28;20396;-73
2022/05/07 03:09:06;;;;;;;19.35;15.15;;;14.40;91.90;;;;;;5076007;28;20479;-73
2022/05/07 03:11:36;;;;;;;18.00;15.63;;;14.40;91.80;;;;;;5041408;28;20059;-73
2022/05/07 03:14:02;;;;;;;20.52;16.67;;;14.40;91.80;;;;;;5058024;28;20166;-73
2022/05/07 03:16:28;;;;;;;16.42;14.50;;;14.40;92.10;;;;;;5057842;28;20111;-73
2022/05/07 03:18:54;;;;;;;20.70;15.82;;;14.30;91.80;;;;;;5076098;28;20473;-80
2022/05/07 03:21:19;;;;;;;19.80;16.73;;;14.30;91.90;;;;;;5075623;28;20032;-79
2022/05/07 03:23:46;;;;;;;18.20;15.82;;;14.20;91.90;;;;;;5057924;28;20041;-80
2022/05/07 03:26:12;;;;;;;19.25;15.90;;;14.20;92.00;;;;;;5076004;28;20031;-79
2022/05/07 03:28:38;;;;;;;20.52;15.27;;;14.20;92.00;;;;;;5074316;28;20024;-79
2022/05/07 03:31:04;;;;;;;18.67;15.50;;;14.10;92.10;;;;;;5074192;28;20427;-79
2022/05/07 03:33:30;;;;;;;19.40;16.13;;;14.20;92.20;;;;;;5040810;28;20029;-79
2022/05/07 03:35:56;;;;;;;16.83;13.82;;;14.20;92.20;;;;;;5057539;28;20074;-79
2022/05/07 03:38:22;;;;;;;19.85;15.10;;;14.10;92.20;;;;;;5057394;28;20033;-79
2022/05/07 03:40:48;;;;;;;19.35;15.98;;;14.10;92.30;;;;;;5057603;28;20039;-79
2022/05/07 03:43:14;;;;;;;18.45;15.57;;;14.10;92.20;;;;;;5057231;28;20031;-79
2022/05/07 03:45:40;;;;;;;20.08;15.60;;;14.10;92.30;;;;;;5075483;28;20461;-79
2022/05/07 03:48:06;;;;;;;18.30;15.75;;;14.20;92.30;;;;;;5057496;28;20111;-79
2022/05/07 03:50:32;;;;;;;21.65;15.77;;;14.10;92.30;;;;;;5057063;28;20032;-79
2022/05/07 03:55:42;;;;;;;18.50;15.80;;;14.10;92.40;;;;;;5060080;28;20078;-79
2022/05/07 03:58:11;;;;;;;19.90;15.82;;;14.20;92.40;;;;;;5075164;28;20064;-79
2022/05/07 04:00:39;;;;;;;21.08;15.45;;;14.10;92.40;;;;;;5040778;28;20031;-79
2022/05/07 04:03:05;;;;;;;20.52;16.25;;;14.10;92.40;;;;;;5057051;28;20037;-79
2022/05/07 04:05:31;;;;;;;19.73;16.67;;;14.10;92.40;;;;;;5056907;28;20119;-79
2022/05/07 04:07:57;;;;;;;20.08;15.38;;;14.10;92.50;;;;;;5074554;28;20048;-79
2022/05/07 04:10:22;;;;;;;21.00;16.15;;;14.10;92.50;;;;;;5052534;28;20608;-79
2022/05/07 04:12:51;;;;;;;19.52;15.60;;;14.20;92.60;;;;;;5036742;28;20036;-79
2022/05/07 04:15:20;;;;;;;20.08;16.08;;;14.10;92.60;;;;;;5054734;28;20033;-79
2022/05/07 04:17:46;;;;;;;20.80;16.20;;;14.20;92.60;;;;;;5054489;28;20491;-79
2022/05/07 04:20:12;;;;;;;20.55;16.42;;;14.20;92.70;;;;;;5054521;28;20041;-79
2022/05/07 04:22:38;;;;;;;21.63;17.17;;;14.20;92.80;;;;;;5053275;28;20043;-79
2022/05/07 04:25:05;;;;;;;20.55;17.52;;;14.20;92.90;;;;;;5054634;28;20060;-79
2022/05/07 04:27:30;;;;;;;20.83;17.55;;;14.20;92.90;;;;;;5054534;28;20047;-79
2022/05/07 04:29:57;;;;;;;20.52;17.70;;;14.20;93.00;;;;;;5054323;28;20477;-79
2022/05/07 04:32:27;;;;;;;22.38;18.25;;;14.20;93.10;;;;;;5054350;28;20540;-79
2022/05/07 04:34:55;;;;;;;20.90;17.08;;;14.30;93.20;;;;;;5054182;28;20063;-80
2022/05/07 04:37:21;;;;;;;21.80;16.45;;;14.30;93.30;;;;;;5036222;28;20029;-80
2022/05/07 04:39:47;;;;;;;20.67;18.30;;;14.30;93.30;;;;;;5054129;28;20560;-80
2022/05/07 04:42:13;;;;;;;21.33;18.70;;;14.30;93.30;;;;;;5054155;28;20029;-79
2022/05/07 04:44:39;;;;;;;24.05;19.13;;;14.20;93.30;;;;;;5054105;28;20167;-79
2022/05/07 04:47:05;;;;;;;23.63;19.60;;;14.20;93.40;;;;;;5054012;28;20033;-79
2022/05/07 04:49:31;;;;;;;23.98;19.35;;;14.20;93.50;;;;;;5054043;28;20021;-79
2022/05/07 04:51:57;;;;;;;24.20;21.55;;;14.20;93.50;;;;;;5053979;28;20147;-80
2022/05/07 04:54:23;;;;;;;27.48;21.98;;;14.20;93.50;;;;;;5053758;28;20071;-79
2022/05/07 04:56:50;;;;;;;27.40;22.77;;;14.20;93.60;;;;;;5054037;28;20033;-79
2022/05/07 04:59:17;;;;;;;28.42;23.08;;;14.30;93.70;;;;;;5053862;28;20385;-79
2022/05/07 05:01:43;;;;;;;25.05;21.80;;;14.30;93.70;;;;;;5053797;28;20032;-78
2022/05/07 05:04:09;;;;;;;28.48;23.85;;;14.30;93.80;;;;;;5061438;28;20465;-79
2022/05/07 05:06:35;;;;;;;28.60;24.90;;;14.40;93.80;;;;;;5055843;28;20044;-79
2022/05/07 05:09:01;;;;;;;29.48;24.83;;;14.40;94.00;;;;;;5055661;28;20078;-79
2022/05/07 05:11:26;;;;;;;28.15;23.95;;;14.50;94.00;;;;;;5055737;28;20027;-79
2022/05/07 05:13:52;;;;;;;26.65;21.77;;;14.50;94.00;;;;;;5054925;28;20032;-73
2022/05/07 05:16:18;;;;;;;27.23;23.17;;;14.60;94.00;;;;;;5071161;28;20366;-73
2022/05/07 05:18:44;;;;;;;27.58;23.85;;;14.60;94.00;;;;;;5054180;28;20033;-73
2022/05/07 05:21:10;;;;;;;27.75;23.13;;;14.60;94.00;;;;;;5050197;28;20075;-72
2022/05/07 05:23:36;;;;;;;27.17;23.42;;;14.60;94.00;;;;;;5051684;28;20037;-73
2022/05/07 05:26:01;;;;;;;31.10;24.48;;;14.70;93.90;;;;;;5035354;28;20120;-73
2022/05/07 05:28:27;;;;;;;29.05;24.02;;;14.80;93.90;;;;;;5052374;28;20514;-73
2022/05/07 05:30:53;;;;;;;27.92;24.42;;;14.70;93.80;;;;;;5035358;28;20028;-73
2022/05/07 05:33:19;;;;;;;28.70;25.42;;;14.80;93.80;;;;;;5052351;28;20032;-73
2022/05/07 05:35:45;;;;;;;27.30;24.35;;;14.80;93.80;;;;;;5052102;28;20048;-73
2022/05/07 05:38:10;;;;;;;30.38;24.65;;;14.80;93.80;;;;;;5053751;28;20466;-73
2022/05/07 05:40:36;;;;;;;30.60;24.70;;;14.80;93.80;;;;;;5047478;28;20477;-73
2022/05/07 05:43:02;;;;;;;30.65;24.65;;;14.80;93.80;;;;;;5064474;28;20036;-73
2022/05/07 05:45:28;;;;;;;30.83;25.05;;;14.80;93.70;;;;;;5055184;28;20461;-80
2022/05/07 05:47:54;;;;;;;31.42;25.52;;;14.80;93.70;;;;;;5073183;28;20032;-80
2022/05/07 05:50:21;;;;;;;29.38;25.92;;;14.80;93.70;;;;;;5073161;28;20435;-82
2022/05/07 05:52:47;;;;;;;35.00;28.05;;;14.80;93.60;;;;;;5038648;28;20035;-80
2022/05/07 05:55:12;;;;;;;34.33;27.08;;;14.90;93.60;;;;;;5038584;28;20401;-80
2022/05/07 05:57:38;;;;;;;30.17;26.55;;;14.80;93.80;;;;;;5073279;28;20040;-80
2022/05/07 06:00:08;;;;;;;32.83;26.45;;;14.90;93.60;;;;;;5055038;28;20419;-80
2022/05/07 06:02:34;;;;;;;31.05;26.92;;;14.90;93.60;;;;;;5039002;28;20036;-80
2022/05/07 06:04:59;;;;;;;33.30;26.73;;;14.90;93.50;;;;;;5055257;28;20033;-82
2022/05/07 06:07:25;;;;;;;32.88;27.88;;;14.90;93.50;;;;;;5055065;28;20428;-80
2022/05/07 06:09:51;;;;;;;34.22;27.38;;;15.00;93.50;;;;;;5055060;28;20484;-79
2022/05/07 06:12:17;;;;;;;31.00;25.25;;;14.90;93.40;;;;;;5055147;28;20108;-80
2022/05/07 06:14:42;;;;;;;31.60;25.58;;;15.00;93.40;;;;;;5055029;28;20037;-79
2022/05/07 06:17:08;;;;;;;33.88;26.33;;;15.00;93.40;;;;;;5055423;28;20522;-80
2022/05/07 06:19:33;;;;;;;31.77;26.70;;;15.00;93.40;;;;;;5072886;28;20040;-80
2022/05/07 06:21:59;;;;;;;33.22;25.02;;;15.00;93.30;;;;;;5053818;28;20056;-79
2022/05/07 06:29:53;;;;;;;28.05;23.40;;;15.10;93.00;;;;;;5061594;28;20062;-79
2022/05/07 06:32:19;;;;;;;32.10;26.45;;;15.20;92.90;;;;;;5076481;28;20040;-79
2022/05/07 06:34:45;;;;;;;28.13;24.25;;;15.20;92.80;;;;;;5058639;28;20040;-79
2022/05/07 06:37:11;;;;;;;30.23;24.85;;;15.20;92.80;;;;;;5079627;28;20040;-79
2022/05/07 06:39:38;;;;;;;28.70;23.67;;;15.20;92.70;;;;;;5058720;28;20035;-79
2022/05/07 06:42:04;;;;;;;25.63;21.38;;;15.30;92.70;;;;;;5058094;28;20388;-79
2022/05/07 06:44:30;;;;;;;24.95;20.20;;;15.40;92.60;;;;;;5058915;28;20431;-81
2022/05/07 06:46:57;;;;;;;24.40;19.90;;;15.40;92.80;;;;;;5058364;28;20029;-81
2022/05/07 06:49:23;;;;;;;25.90;19.13;;;15.50;92.30;;;;;;5058242;28;20068;-78
2022/05/07 06:51:49;;;;;;;25.48;18.52;;;15.50;92.10;;;;;;5058215;28;20025;-78
2022/05/07 06:54:15;;;;;;;22.50;17.85;;;15.60;92.10;;;;;;5076160;28;20439;-80
2022/05/07 06:56:41;;;;;;;25.88;18.90;;;15.60;91.90;;;;;;5075891;28;20036;-78
2022/05/07 06:59:07;;;;;;;22.60;18.05;;;15.70;91.80;;;;;;5075093;28;20039;-79
2022/05/07 07:01:33;;;;;;;21.05;15.93;;;15.80;91.70;;;;;;5057845;28;20040;-81
2022/05/07 07:03:59;;;;;;;22.85;16.38;;;15.80;91.50;;;;;;5076281;28;20029;-81
2022/05/07 07:06:25;;;;;;;22.83;17.15;;;15.90;91.40;;;;;;5075662;28;20040;-79
2022/05/07 07:08:52;;;;;;;26.38;17.65;;;15.90;91.20;;;;;;5075800;28;20082;-80
2022/05/07 07:11:20;;;;;;;23.95;16.90;;;16.00;91.20;;;;;;5058143;28;20052;-81
2022/05/07 07:13:46;;;;;;;23.65;16.88;;;16.10;91.00;;;;;;5075845;28;20025;-82
2022/05/07 07:16:11;;;;;;;26.52;16.92;;;16.10;90.70;;;;;;5057923;28;20480;-82
2022/05/07 07:18:37;;;;;;;25.92;15.52;;;16.10;90.60;;;;;;5075834;28;20477;-81
2022/05/07 07:21:03;;;;;;;23.00;15.48;;;16.10;90.40;;;;;;5057699;28;20028;-82
2022/05/07 07:23:28;;;;;;;22.17;15.77;;;16.20;90.30;;;;;;5075634;28;20032;-83
2022/05/07 07:25:54;;;;;;;22.70;14.27;;;16.30;90.10;;;;;;5057641;28;20059;-79
2022/05/07 07:28:19;;;;;;;21.85;13.73;;;16.30;90.00;;;;;;5057737;28;20056;-81
2022/05/07 07:30:45;;;;;;;18.77;13.95;;;16.40;89.60;;;;;;5057817;28;20043;-82
2022/05/07 07:33:13;;;;;;;23.77;15.30;;;16.50;89.50;;;;;;5057566;28;20040;-82
2022/05/07 07:35:39;;;;;;;21.67;14.52;;;16.60;89.10;;;;;;5056597;28;20385;-73
2022/05/07 07:38:05;;;;;;;20.80;13.63;;;16.70;88.90;;;;;;5057842;28;20033;-74
2022/05/07 07:40:31;;;;;;;21.85;13.15;;;16.70;88.40;;;;;;5075278;28;20033;-73
2022/05/07 07:42:56;;;;;;;22.63;12.60;;;16.80;87.70;;;;;;5057878;28;20040;-73
2022/05/07 07:48:07;;;;;;;24.25;13.80;;;16.90;87.00;;;;;;5046174;28;20120;-74
2022/05/07 07:50:35;;;;;;;20.02;12.48;;;16.90;86.50;;;;;;5075402;28;20023;-73
2022/05/07 07:53:04;;;;;;;23.42;13.02;;;17.00;86.30;;;;;;5075075;28;20513;-73
2022/05/07 07:55:30;;;;;;;21.88;11.77;;;17.00;86.10;;;;;;5074927;28;20033;-73
2022/05/07 07:57:58;;;;;;;23.98;12.25;;;17.10;85.90;;;;;;5053367;28;20016;-73
2022/05/07 08:00:25;;;;;;;20.88;13.32;;;17.20;85.60;;;;;;5074798;28;20025;-73
2022/05/07 08:02:55;;;;;;;21.67;11.80;;;17.30;85.40;;;;;;5074520;28;20070;-73
2022/05/07 08:05:35;;;;;;;21.85;11.77;;;17.40;85.10;;;;;;5065281;28;20020;-73
2022/05/07 08:13:34;;;;;;;;;;;17.60;82.80;;;;;;5077254;28;20086;-73
2022/05/07 08:16:04;;;;;;;23.45;11.32;;;17.70;82.20;;;;;;5056855;28;19996;-73
2022/05/07 08:18:30;;;;;;;19.17;10.63;;;17.70;81.90;;;;;;5056659;28;20027;-74
2022/05/07 08:20:56;;;;;;;19.70;10.85;;;17.70;81.20;;;;;;5056600;28;20021;-73
2022/05/07 08:23:23;;;;;;;19.55;10.38;;;17.70;80.80;;;;;;5040109;28;20086;-73
2022/05/07 08:25:49;;;;;;;20.83;10.50;;;17.80;80.60;;;;;;5074419;28;20484;-74
2022/05/07 08:28:17;;;;;;;17.77;10.38;;;17.80;80.30;;;;;;5039868;28;20052;-73
2022/05/07 08:30:44;;;;;;;19.30;10.02;;;17.80;80.30;;;;;;5036989;28;20115;-73
2022/05/07 08:33:09;;;;;;;19.98;10.82;;;17.90;80.70;;;;;;5052865;28;20188;-73
2022/05/07 08:35:35;;;;;;;19.90;11.80;;;17.90;79.30;;;;;;5036671;28;20048;-82
2022/05/07 08:38:01;;;;;;;18.60;10.93;;;17.90;78.90;;;;;;5036601;28;20543;-81
2022/05/07 08:40:27;;;;;;;17.52;10.70;;;18.00;79.00;;;;;;5036315;28;20506;-80
2022/05/07 08:42:56;;;;;;;23.27;10.27;;;18.10;78.60;;;;;;5054035;28;20389;-80
2022/05/07 08:45:23;;;;;;;20.85;10.32;;;18.20;78.30;;;;;;5052744;28;20025;-83
2022/05/07 08:47:52;;;;;;;19.75;10.32;;;18.30;78.00;;;;;;5052183;28;20513;-79
2022/05/07 08:50:18;;;;;;;17.38;11.25;;;18.40;77.70;;;;;;5052403;28;20025;-82
2022/05/07 08:52:45;;;;;;;15.57;9.52;;;18.40;77.50;;;;;;5053951;28;20102;-82
2022/05/07 08:55:13;;;;;;;15.00;9.38;;;18.50;77.20;;;;;;5053704;28;20498;-77
2022/05/07 08:57:39;;;;;;;20.08;10.60;;;18.60;77.00;;;;;;5035873;28;20091;-82
2022/05/07 09:00:06;;;;;;;18.92;11.40;;;18.70;76.70;;;;;;5052408;28;20029;-79
2022/05/07 09:02:48;;;;;;;20.60;11.88;;;18.80;76.40;;;;;;5036332;28;20029;-80
2022/05/07 09:05:18;;;;;;;16.77;10.63;;;18.90;76.20;;;;;;5067450;28;20423;-80
2022/05/07 09:08:03;;;;;;;22.63;11.40;;;19.00;76.20;;;;;;5036774;28;20398;-82
2022/05/07 09:10:32;;;;;;;21.35;11.77;;;19.10;76.00;;;;;;5053544;28;20116;-82
2022/05/07 09:13:17;;;;;;;21.58;11.80;;;19.20;75.70;;;;;;5035694;28;20025;-80
2022/05/07 09:15:57;;;;;;;16.80;10.43;;;19.30;75.20;;;;;;5035581;28;20033;-82
2022/05/07 09:18:26;;;;;;;17.55;9.88;;;19.40;74.70;;;;;;5072644;28;20035;-81
2022/05/07 09:21:20;;;;;;;16.98;10.85;;;19.50;74.20;;;;;;5093943;28;20054;-82
2022/05/07 09:24:06;;;;;;;22.73;10.67;;;19.60;73.50;;;;;;5093524;28;20032;-82
2022/05/07 09:26:33;;;;;;;16.27;9.27;;;19.60;73.30;;;;;;5088419;28;20017;-84
2022/05/07 09:29:03;;;;;;;17.92;9.55;;;19.80;73.00;;;;;;5073077;28;20032;-83
2022/05/07 09:31:33;;;;;;;17.75;7.97;;;19.80;72.30;;;;;;5073567;28;20025;-81
2022/05/07 09:36:53;;;;;;;15.10;7.75;;;20.00;71.30;;;;;;5074575;28;20035;-82
2022/05/07 09:39:18;;;;;;;12.55;6.68;;;20.10;70.90;;;;;;5075535;28;20492;-83
2022/05/07 09:41:44;;;;;;;13.05;7.72;;;20.20;70.50;;;;;;5094066;28;20066;-82
2022/05/07 09:44:11;;;;;;;16.10;8.40;;;20.40;70.00;;;;;;5058345;28;20038;-74
2022/05/07 09:46:38;;;;;;;16.08;7.28;;;20.50;69.70;;;;;;5093397;28;20053;-74
2022/05/07 09:49:05;;;;;;;18.48;8.93;;;20.60;69.30;;;;;;5075257;28;20028;-74
2022/05/07 09:51:32;;;;;;;15.10;7.53;;;20.70;68.00;;;;;;5041464;28;20025;-74
2022/05/07 09:59:28;;;;;;;13.60;7.32;;;21.00;67.00;;;;;;5076355;28;20368;-74
2022/05/07 10:02:16;;;;;;;17.60;8.70;;;21.10;66.50;;;;;;5059613;28;20036;-74
2022/05/07 10:04:53;;;;;;;14.40;7.18;;;21.20;66.20;;;;;;5077145;28;20040;-74
2022/05/07 10:07:50;;;;;;;12.70;6.57;;;21.30;65.90;;;;;;5058911;28;20048;-74
2022/05/07 10:10:28;;;;;;;15.25;7.88;;;21.50;65.60;;;;;;5076839;28;20488;-74
2022/05/07 10:12:57;;;;;;;13.38;7.50;;;21.60;65.40;;;;;;5077015;28;20025;-74
2022/05/07 10:15:24;;;;;;;13.20;7.75;;;21.80;64.90;;;;;;5079508;28;20688;-73
2022/05/07 10:18:01;;;;;;;13.63;7.88;;;21.90;64.20;;;;;;5094194;28;20028;-73
2022/05/07 10:20:38;;;;;;;13.07;6.88;;;21.90;63.60;;;;;;5097100;28;20028;-74
2022/05/07 10:23:04;;;;;;;14.57;6.68;;;22.00;63.60;;;;;;5096645;28;20025;-74
2022/05/07 10:25:29;;;;;;;13.55;7.32;;;22.10;63.80;;;;;;5096699;28;20024;-73
2022/05/07 10:28:10;;;;;;;12.75;6.32;;;22.20;63.70;;;;;;5079149;28;20031;-74
2022/05/07 10:30:48;;;;;;;11.45;6.60;;;22.40;63.10;;;;;;5096818;28;20496;-74
2022/05/07 10:33:15;;;;;;;12.32;6.15;;;22.40;62.80;;;;;;5096868;28;20036;-74
2022/05/07 10:35:52;;;;;;;12.35;6.53;;;22.50;62.70;;;;;;5096676;28;20061;-74
2022/05/07 10:38:28;;;;;;;12.60;6.65;;;22.50;62.50;;;;;;5096775;28;20118;-74
2022/05/07 10:41:02;;;;;;;10.55;6.00;;;22.60;62.40;;;;;;5097002;28;20035;-75
2022/05/07 10:43:38;;;;;;;11.23;6.28;;;22.60;62.00;;;;;;5096384;28;20116;-74
2022/05/07 10:46:05;;;;;;;10.80;6.30;;;22.80;61.60;;;;;;5096335;28;20028;-74
2022/05/07 10:48:48;;;;;;;12.38;6.00;;;23.00;61.40;;;;;;5096828;28;20018;-83
2022/05/07 10:51:21;;;;;;;12.60;6.82;;;23.20;60.60;;;;;;5096339;28;20032;-74
2022/05/07 10:53:48;;;;;;;11.20;5.93;;;23.40;60.40;;;;;;5096785;28;20028;-74
2022/05/07 10:56:14;;;;;;;10.80;6.55;;;23.60;60.20;;;;;;5078318;28;20289;-77
2022/05/07 10:58:50;;;;;;;9.85;5.72;;;23.70;59.70;;;;;;5096614;28;20028;-74
2022/05/07 11:01:17;;;;;;;9.95;5.53;;;23.70;59.00;;;;;;5097004;28;20111;-74
2022/05/07 11:03:43;;;;;;;10.43;5.93;;;23.80;58.90;;;;;;5096011;28;20024;-77
2022/05/07 11:06:09;;;;;;;11.25;5.70;;;24.00;58.60;;;;;;5096111;28;20107;-78
2022/05/07 11:08:49;;;;;;;10.20;5.43;;;24.10;58.10;;;;;;5096412;28;20032;-76
2022/05/07 11:11:17;;;;;;;11.25;6.43;;;24.40;57.50;;;;;;5095924;28;20020;-74
2022/05/07 11:13:55;;;;;;;10.23;5.68;;;24.60;57.30;;;;;;5095833;28;20056;-75
2022/05/07 11:16:22;;;;;;;8.05;5.13;;;24.80;56.40;;;;;;5096067;28;20024;-83
2022/05/07 11:18:53;;;;;;;10.85;4.80;;;24.90;56.20;;;;;;5095986;28;20053;-77
2022/05/07 11:21:18;;;;;;;8.57;5.28;;;24.90;55.90;;;;;;5077789;28;20028;-81
2022/05/07 11:23:44;;;;;;;8.75;5.88;;;24.90;55.80;;;;;;5095751;28;20028;-82
2022/05/07 11:26:17;;;;;;;9.40;5.40;;;25.00;55.60;;;;;;5055225;28;20021;-82
2022/05/07 11:28:45;;;;;;;7.95;5.07;;;25.10;55.30;;;;;;5057747;28;20117;-84
2022/05/07 11:31:28;;;;;;;8.95;5.53;;;25.10;55.10;;;;;;5075590;28;20017;-81
2022/05/07 11:34:07;;;;;;;9.27;4.87;;;25.10;55.10;;;;;;5079064;28;20358;-77
2022/05/07 11:36:33;;;;;;;8.15;4.47;;;25.10;54.80;;;;;;5077846;28;20899;-78
2022/05/07 11:39:01;;;;;;;9.10;4.45;;;25.00;54.70;;;;;;5096087;28;20031;-79
2022/05/07 11:41:27;;;;;;;10.45;5.30;;;24.90;54.60;;;;;;5077485;28;20021;-82
2022/05/07 11:46:55;;;;;;;9.93;5.50;;;24.50;55.00;;;;;;5095847;28;20094;-82
2022/05/07 11:49:34;;;;;;;9.65;4.88;;;24.30;55.40;;;;;;5077043;28;20024;-80
2022/05/07 11:52:04;;;;;;;8.48;5.03;;;24.00;55.60;;;;;;5077483;28;20030;-81
2022/05/07 11:54:30;;;;;;;11.65;5.40;;;23.80;56.00;;;;;;5095193;28;20388;-82
2022/05/07 11:56:56;;;;;;;10.63;5.45;;;23.60;56.70;;;;;;5041917;28;20033;-81
2022/05/07 11:59:22;;;;;;;12.20;5.22;;;23.40;57.50;;;;;;5036985;28;20427;-81
2022/05/07 12:01:49;;;;;;;11.10;6.03;;;23.20;59.10;;;;;;5036884;28;20025;-86
2022/05/07 12:04:14;;;;;;;8.63;5.68;;;23.00;61.80;;;;;;5037554;28;20036;-82
2022/05/07 12:06:40;;;;;;;12.50;5.32;;;22.80;63.70;;;;;;5020718;28;20398;-83
2022/05/07 12:09:14;;;;;;;9.10;4.28;;;22.60;64.80;;;;;;5020507;28;20033;-81
2022/05/07 12:11:42;;;;;;;8.27;4.60;;;22.30;65.40;;;;;;5037304;28;20036;-81
2022/05/07 12:14:09;;;;;;;10.13;5.20;;;22.10;65.50;;;;;;5054904;28;20021;-81
2022/05/07 12:19:30;;;;;;;8.02;4.50;;;21.90;66.40;;;;;;5040033;28;20147;-81
2022/05/07 12:30:22;;;;;;;5.13;2.80;;;21.70;67.00;;;;;;5025980;28;20503;-80
2022/05/07 12:32:49;;;;;;;7.65;3.90;;;21.70;66.90;;;;;;5036366;28;20033;-81
2022/05/07 12:35:15;;;;;;;7.63;3.35;;;21.70;66.90;;;;;;5030581;28;20043;-82
2022/05/07 12:37:41;;;;;;;9.32;3.50;;;21.90;67.10;;;;;;5076413;28;20028;-81
2022/05/07 12:40:08;;;;;;;9.15;4.28;;;21.90;67.90;;;;;;5076654;28;20370;-81
2022/05/07 12:42:35;;;;;;;9.48;3.83;;;22.10;67.70;;;;;;5094400;28;20054;-81
2022/05/07 12:45:01;;;;;;;8.50;3.85;;;22.30;67.80;;;;;;5094251;28;20020;-82
2022/05/07 12:47:28;;;;;;;8.07;3.65;;;22.60;67.80;;;;;;5094275;28;20419;-82
2022/05/07 12:49:53;;;;;;;5.22;2.80;;;22.90;67.70;;;;;;5076336;28;20016;-83
2022/05/07 12:52:20;;;;;;;7.28;3.35;;;23.40;67.40;;;;;;5075634;28;20093;-81
2022/05/07 12:54:46;;;;;;;6.68;3.78;;;23.70;65.90;;;;;;5094084;28;20111;-82
2022/05/07 12:57:12;;;;;;;8.40;4.22;;;24.00;64.80;;;;;;5076119;28;20099;-83
2022/05/07 12:59:37;;;;;;;10.27;4.78;;;24.30;63.90;;;;;;5057498;28;20486;-84
2022/05/07 13:02:06;;;;;;;8.90;4.15;;;24.60;63.40;;;;;;5073726;28;20025;-84
2022/05/07 13:04:32;;;;;;;9.40;4.82;;;24.90;63.20;;;;;;5040040;28;20482;-85
2022/05/07 13:06:57;;;;;;;9.70;5.35;;;25.40;62.90;;;;;;5039523;28;20072;-86
2022/05/07 13:09:23;;;;;;;11.85;5.80;;;25.80;62.00;;;;;;5039440;28;20036;-83
2022/05/07 13:11:49;;;;;;;8.52;5.20;;;26.30;61.00;;;;;;5040244;28;20123;-84
2022/05/07 13:14:15;;;;;;;15.30;6.25;;;26.60;59.80;;;;;;5055831;28;20040;-83
2022/05/07 13:16:40;;;;;;;10.25;5.68;;;26.70;58.70;;;;;;5035011;28;20134;-76